N9190K KBDL-KMTP
Flight info
| Callsign | N9190K |
|---|---|
| Flight time | 0h 26m |
| Altitude | 5000 |
| Route | HFD THUMB ARENE SALEM GON |
| Aircraft | BE36/L-BDFGLORY/S |
Departure
| Time | 2026-04-25 14:07 |
|---|---|
| Airport | Bradley International Airport (KBDL) |
Arrival
| Time | 2026-04-25 14:33 |
|---|---|
| Airport | Montauk Airport (KMTP) |
| Time | Latitude | Longitude | Altitude | Speed | Heading |
|---|---|---|---|---|---|
| 2026-04-25 13:59 | 41.93779 | -72.69461 | 168 ft | 0 kts | 324° |
| 2026-04-25 14:00 | 41.93780 | -72.69461 | 178 ft | 0 kts | 324° |
| 2026-04-25 14:02 | 41.93781 | -72.69462 | 178 ft | 0 kts | 330° |
| 2026-04-25 14:03 | 41.93775 | -72.69460 | 178 ft | 0 kts | 22° |
| 2026-04-25 14:03 | 41.93767 | -72.69383 | 178 ft | 9 kts | 126° |
| 2026-04-25 14:04 | 41.93749 | -72.69352 | 178 ft | 0 kts | 129° |
| 2026-04-25 14:04 | 41.93733 | -72.69327 | 179 ft | 10 kts | 133° |
| 2026-04-25 14:04 | 41.93749 | -72.69234 | 180 ft | 14 kts | 43° |
| 2026-04-25 14:04 | 41.93817 | -72.69148 | 180 ft | 13 kts | 44° |
| 2026-04-25 14:05 | 41.93870 | -72.69071 | 179 ft | 2 kts | 47° |
| 2026-04-25 14:05 | 41.93908 | -72.69029 | 178 ft | 6 kts | 41° |
| 2026-04-25 14:05 | 41.93909 | -72.69029 | 178 ft | 0 kts | 41° |
| 2026-04-25 14:06 | 41.93936 | -72.68992 | 177 ft | 12 kts | 46° |
| 2026-04-25 14:06 | 41.93927 | -72.68888 | 177 ft | 17 kts | 137° |
| 2026-04-25 14:06 | 41.93606 | -72.68449 | 193 ft | 103 kts | 134° |
| 2026-04-25 14:06 | 41.93090 | -72.67713 | 586 ft | 107 kts | 133° |
| 2026-04-25 14:07 | 41.92560 | -72.67084 | 1104 ft | 97 kts | 184° |
| 2026-04-25 14:07 | 41.91957 | -72.67418 | 1329 ft | 114 kts | 257° |
| 2026-04-25 14:07 | 41.91735 | -72.68454 | 1475 ft | 125 kts | 284° |
| 2026-04-25 14:07 | 41.91500 | -72.69584 | 1543 ft | 129 kts | 269° |
| 2026-04-25 14:08 | 41.91014 | -72.70509 | 1775 ft | 117 kts | 240° |
| 2026-04-25 14:08 | 41.90312 | -72.70963 | 1897 ft | 115 kts | 207° |
| 2026-04-25 14:08 | 41.89511 | -72.70887 | 1828 ft | 119 kts | 176° |
| 2026-04-25 14:08 | 41.88836 | -72.70323 | 1896 ft | 116 kts | 162° |
| 2026-04-25 14:09 | 41.88153 | -72.69719 | 1871 ft | 125 kts | 153° |
| 2026-04-25 14:09 | 41.87652 | -72.68826 | 2150 ft | 109 kts | 161° |
| 2026-04-25 14:09 | 41.86927 | -72.68614 | 2336 ft | 120 kts | 218° |
| 2026-04-25 14:09 | 41.86644 | -72.68733 | 2241 ft | 130 kts | 207° |
| 2026-04-25 14:10 | 41.85111 | -72.69129 | 2154 ft | 148 kts | 188° |
| 2026-04-25 14:10 | 41.84269 | -72.68751 | 2877 ft | 121 kts | 135° |
| 2026-04-25 14:10 | 41.83591 | -72.68351 | 3632 ft | 109 kts | 189° |
| 2026-04-25 14:10 | 41.82843 | -72.68549 | 4178 ft | 112 kts | 180° |
| 2026-04-25 14:11 | 41.82056 | -72.68558 | 4674 ft | 114 kts | 182° |
| 2026-04-25 14:11 | 41.81252 | -72.68566 | 5078 ft | 122 kts | 182° |
| 2026-04-25 14:11 | 41.80290 | -72.68540 | 5108 ft | 151 kts | 176° |
| 2026-04-25 14:11 | 41.79180 | -72.68412 | 5106 ft | 167 kts | 177° |
| 2026-04-25 14:12 | 41.78033 | -72.68038 | 5103 ft | 176 kts | 150° |
| 2026-04-25 14:12 | 41.77080 | -72.67039 | 5103 ft | 170 kts | 141° |
| 2026-04-25 14:12 | 41.76193 | -72.66040 | 5102 ft | 164 kts | 141° |
| 2026-04-25 14:12 | 41.75331 | -72.65066 | 5100 ft | 161 kts | 141° |
| 2026-04-25 14:13 | 41.74479 | -72.64100 | 5101 ft | 160 kts | 141° |
| 2026-04-25 14:13 | 41.73633 | -72.63141 | 5099 ft | 159 kts | 141° |
| 2026-04-25 14:13 | 41.72788 | -72.62183 | 5097 ft | 159 kts | 141° |
| 2026-04-25 14:13 | 41.71931 | -72.61212 | 5099 ft | 163 kts | 141° |
| 2026-04-25 14:14 | 41.71069 | -72.60236 | 5102 ft | 165 kts | 140° |
| 2026-04-25 14:14 | 41.70157 | -72.59223 | 5102 ft | 170 kts | 141° |
| 2026-04-25 14:14 | 41.69254 | -72.58225 | 5103 ft | 171 kts | 141° |
| 2026-04-25 14:14 | 41.68331 | -72.57210 | 5106 ft | 173 kts | 141° |
| 2026-04-25 14:15 | 41.67405 | -72.56195 | 5097 ft | 171 kts | 141° |
| 2026-04-25 14:15 | 41.67092 | -72.55854 | 5097 ft | 171 kts | 141° |
| 2026-04-25 14:15 | 41.65555 | -72.54183 | 5094 ft | 171 kts | 141° |
| 2026-04-25 14:15 | 41.64629 | -72.53171 | 5092 ft | 172 kts | 141° |
| 2026-04-25 14:16 | 41.63704 | -72.52159 | 5093 ft | 172 kts | 141° |
| 2026-04-25 14:16 | 41.62760 | -72.51128 | 5006 ft | 176 kts | 141° |
| 2026-04-25 14:16 | 41.61813 | -72.50107 | 5020 ft | 168 kts | 170° |
| 2026-04-25 14:16 | 41.60790 | -72.49675 | 4868 ft | 151 kts | 192° |
| 2026-04-25 14:17 | 41.59755 | -72.49379 | 4460 ft | 154 kts | 185° |
| 2026-04-25 14:17 | 41.59082 | -72.49082 | 4144 ft | 154 kts | 179° |
| 2026-04-25 14:17 | 41.57826 | -72.48219 | 3482 ft | 149 kts | 165° |
| 2026-04-25 14:17 | 41.57280 | -72.47677 | 3143 ft | 146 kts | 159° |
| 2026-04-25 14:18 | 41.56539 | -72.46801 | 2763 ft | 142 kts | 158° |
| 2026-04-25 14:18 | 41.55796 | -72.45975 | 2574 ft | 135 kts | 167° |
| 2026-04-25 14:18 | 41.55032 | -72.45226 | 2391 ft | 138 kts | 156° |
| 2026-04-25 14:18 | 41.54366 | -72.44312 | 2453 ft | 136 kts | 153° |
| 2026-04-25 14:19 | 41.53739 | -72.43316 | 2300 ft | 144 kts | 148° |
| 2026-04-25 14:19 | 41.53121 | -72.42266 | 2165 ft | 144 kts | 148° |
| 2026-04-25 14:19 | 41.52490 | -72.41226 | 2061 ft | 142 kts | 156° |
| 2026-04-25 14:19 | 41.51829 | -72.40334 | 2311 ft | 134 kts | 122° |
| 2026-04-25 14:20 | 41.51359 | -72.39382 | 3215 ft | 113 kts | 118° |
| 2026-04-25 14:20 | 41.51211 | -72.38709 | 3672 ft | 118 kts | 94° |
| 2026-04-25 14:20 | 41.51068 | -72.37159 | 4142 ft | 138 kts | 118° |
| 2026-04-25 14:20 | 41.50475 | -72.36114 | 4521 ft | 144 kts | 129° |
| 2026-04-25 14:21 | 41.49824 | -72.35076 | 4902 ft | 148 kts | 130° |
| 2026-04-25 14:21 | 41.49111 | -72.33968 | 4994 ft | 168 kts | 130° |
| 2026-04-25 14:21 | 41.48310 | -72.32744 | 5000 ft | 181 kts | 130° |
| 2026-04-25 14:21 | 41.47460 | -72.31451 | 5000 ft | 188 kts | 131° |
| 2026-04-25 14:22 | 41.46602 | -72.30143 | 5003 ft | 190 kts | 131° |
| 2026-04-25 14:22 | 41.45733 | -72.28811 | 5002 ft | 191 kts | 130° |
| 2026-04-25 14:22 | 41.44858 | -72.27477 | 4998 ft | 192 kts | 131° |
| 2026-04-25 14:22 | 41.43978 | -72.26138 | 5000 ft | 192 kts | 131° |
| 2026-04-25 14:23 | 41.43097 | -72.24795 | 5000 ft | 193 kts | 130° |
| 2026-04-25 14:23 | 41.42212 | -72.23452 | 4995 ft | 192 kts | 131° |
| 2026-04-25 14:23 | 41.41331 | -72.22111 | 4936 ft | 192 kts | 131° |
| 2026-04-25 14:23 | 41.40442 | -72.20754 | 4803 ft | 195 kts | 130° |
| 2026-04-25 14:24 | 41.39562 | -72.19414 | 4675 ft | 194 kts | 131° |
| 2026-04-25 14:24 | 41.38664 | -72.18049 | 4452 ft | 198 kts | 130° |
| 2026-04-25 14:24 | 41.37748 | -72.16668 | 4187 ft | 199 kts | 131° |
| 2026-04-25 14:24 | 41.36832 | -72.15286 | 3933 ft | 199 kts | 130° |
| 2026-04-25 14:25 | 41.35911 | -72.13910 | 3679 ft | 198 kts | 130° |
| 2026-04-25 14:25 | 41.34996 | -72.12554 | 3419 ft | 196 kts | 130° |
| 2026-04-25 14:25 | 41.34086 | -72.11215 | 3156 ft | 192 kts | 130° |
| 2026-04-25 14:25 | 41.33495 | -72.10359 | 2983 ft | 188 kts | 131° |
| 2026-04-25 14:26 | 41.32322 | -72.08660 | 2694 ft | 185 kts | 132° |
| 2026-04-25 14:26 | 41.31308 | -72.07696 | 2641 ft | 179 kts | 151° |
| 2026-04-25 14:26 | 41.30115 | -72.07151 | 2364 ft | 185 kts | 165° |
| 2026-04-25 14:26 | 41.28839 | -72.06774 | 2183 ft | 189 kts | 165° |
| 2026-04-25 14:27 | 41.27571 | -72.06394 | 2177 ft | 185 kts | 164° |
| 2026-04-25 14:27 | 41.26326 | -72.05988 | 2170 ft | 183 kts | 163° |
| 2026-04-25 14:27 | 41.25116 | -72.05542 | 2238 ft | 179 kts | 160° |
| 2026-04-25 14:27 | 41.23939 | -72.05057 | 2224 ft | 175 kts | 158° |
| 2026-04-25 14:28 | 41.22809 | -72.04351 | 2004 ft | 183 kts | 146° |
| 2026-04-25 14:28 | 41.21852 | -72.03271 | 1961 ft | 178 kts | 134° |
| 2026-04-25 14:28 | 41.20997 | -72.02115 | 1968 ft | 175 kts | 130° |
| 2026-04-25 14:28 | 41.20272 | -72.00818 | 1868 ft | 177 kts | 121° |
| 2026-04-25 14:29 | 41.19683 | -71.99376 | 1757 ft | 177 kts | 116° |
| 2026-04-25 14:29 | 41.19179 | -71.97930 | 1718 ft | 174 kts | 115° |
| 2026-04-25 14:29 | 41.18572 | -71.96515 | 1610 ft | 178 kts | 123° |
| 2026-04-25 14:29 | 41.17772 | -71.95265 | 1637 ft | 173 kts | 133° |
| 2026-04-25 14:30 | 41.16898 | -71.94169 | 1593 ft | 172 kts | 137° |
| 2026-04-25 14:30 | 41.15012 | -71.92491 | 1383 ft | 160 kts | 149° |
| 2026-04-25 14:30 | 41.14069 | -71.91862 | 1220 ft | 143 kts | 151° |
| 2026-04-25 14:31 | 41.13242 | -71.91345 | 1220 ft | 121 kts | 151° |
| 2026-04-25 14:31 | 41.12511 | -71.90888 | 1100 ft | 114 kts | 149° |
| 2026-04-25 14:31 | 41.11831 | -71.90445 | 987 ft | 104 kts | 148° |
| 2026-04-25 14:31 | 41.11178 | -71.90054 | 843 ft | 102 kts | 152° |
| 2026-04-25 14:32 | 41.10474 | -71.89826 | 682 ft | 107 kts | 168° |
| 2026-04-25 14:32 | 41.09758 | -71.89808 | 426 ft | 95 kts | 183° |
| 2026-04-25 14:32 | 41.09158 | -71.90114 | 299 ft | 95 kts | 210° |
| 2026-04-25 14:32 | 41.08660 | -71.90678 | 236 ft | 94 kts | 222° |
| 2026-04-25 14:33 | 41.08198 | -71.91306 | 148 ft | 95 kts | 223° |
| 2026-04-25 14:33 | 41.07797 | -71.91871 | 11 ft | 66 kts | 223° |
| 2026-04-25 14:33 | 41.07613 | -71.92129 | 15 ft | 29 kts | 226° |
| 2026-04-25 14:33 | 41.07487 | -71.92309 | 13 ft | 25 kts | 229° |
| 2026-04-25 14:34 | 41.07401 | -71.92433 | 13 ft | 10 kts | 226° |
| 2026-04-25 14:34 | 41.07349 | -71.92413 | 12 ft | 9 kts | 131° |
| 2026-04-25 14:34 | 41.07328 | -71.92373 | 12 ft | 4 kts | 116° |
| 2026-04-25 14:34 | 41.07311 | -71.92348 | 12 ft | 4 kts | 143° |
| 2026-04-25 14:35 | 41.07313 | -71.92317 | 12 ft | 3 kts | 46° |
| 2026-04-25 14:35 | 41.07323 | -71.92293 | 12 ft | 2 kts | 60° |
| 2026-04-25 14:35 | 41.07333 | -71.92274 | 12 ft | 2 kts | 49° |
| 2026-04-25 14:35 | 41.07354 | -71.92279 | 13 ft | 0 kts | 310° |